Time;durP1;ratioP1;P1;durP2;ratioP2;P2;SDS_P1;SDS_P2;PMS_P1;PMS_P2;Temp;Humidity;BMP_temperature;BMP_pressure;BME280_temperature;BME280_humidity;BME280_pressure;Samples;Min_cycle;Max_cycle;Signal;HPM_P1;HPM_P2
2023/12/08 00:00:09;;;;;;;4.63;3.25;;;;;;;4.27;89.42;99709.06;5052733;28;20449;-25
2023/12/08 00:02:35;;;;;;;4.80;3.25;;;;;;;4.33;89.50;99709.41;5048590;28;20489;-25
2023/12/08 00:05:00;;;;;;;5.47;3.42;;;;;;;4.31;89.02;99705.09;5034587;28;20017;-25
2023/12/08 00:07:26;;;;;;;5.60;3.22;;;;;;;4.46;88.78;99709.72;5034814;28;20029;-25
2023/12/08 00:09:51;;;;;;;4.85;3.35;;;;;;;4.28;88.57;99712.50;5034624;28;20049;-25
2023/12/08 00:12:16;;;;;;;5.38;3.40;;;;;;;4.42;89.21;99714.50;5043183;28;20052;-25
2023/12/08 00:14:42;;;;;;;5.65;3.30;;;;;;;4.30;89.51;99714.00;5052953;28;20381;-25
2023/12/08 00:17:07;;;;;;;5.07;3.70;;;;;;;4.45;90.10;99708.88;5050712;28;20107;-25
2023/12/08 00:19:33;;;;;;;5.95;3.70;;;;;;;4.48;89.17;99713.84;5052580;28;20017;-25
2023/12/08 00:21:58;;;;;;;5.15;3.60;;;;;;;4.50;88.46;99713.69;5052874;28;20056;-25
2023/12/08 00:24:24;;;;;;;6.32;4.15;;;;;;;4.30;89.10;99713.16;5053820;28;20033;-25
2023/12/08 00:26:49;;;;;;;6.00;4.00;;;;;;;4.40;90.48;99713.00;5054055;28;20024;-25
2023/12/08 00:29:15;;;;;;;6.00;4.03;;;;;;;4.55;89.35;99721.94;5054069;28;20060;-25
2023/12/08 00:31:40;;;;;;;5.28;3.67;;;;;;;4.36;89.81;99717.81;5053821;28;20140;-26
2023/12/08 00:34:06;;;;;;;5.30;4.00;;;;;;;4.07;90.59;99732.25;5053844;28;20060;-25
2023/12/08 00:36:31;;;;;;;5.57;3.80;;;;;;;4.10;90.43;99728.47;5053681;28;20461;-26
2023/12/08 00:38:57;;;;;;;5.43;4.00;;;;;;;4.12;89.56;99718.59;5053884;28;20064;-26
2023/12/08 00:41:22;;;;;;;5.57;3.80;;;;;;;4.16;90.24;99733.06;5053796;28;20117;-26
2023/12/08 00:43:48;;;;;;;5.88;3.95;;;;;;;4.47;89.33;99721.91;5053420;28;20064;-26
2023/12/08 00:46:16;;;;;;;6.03;4.40;;;;;;;4.67;87.58;99725.03;5053788;28;20025;-26
2023/12/08 00:48:42;;;;;;;7.68;4.55;;;;;;;4.89;87.15;99720.88;5053534;28;20488;-25
2023/12/08 00:51:07;;;;;;;5.38;3.95;;;;;;;4.16;88.63;99705.91;5053416;28;20032;-26
2023/12/08 00:53:32;;;;;;;7.07;4.30;;;;;;;4.36;88.28;99723.06;5053253;28;20025;-26
2023/12/08 00:55:58;;;;;;;6.30;4.13;;;;;;;4.55;88.09;99727.19;5053612;28;20025;-26
2023/12/08 00:58:23;;;;;;;7.30;4.45;;;;;;;4.27;87.73;99730.13;5053518;28;20437;-26
2023/12/08 01:00:49;;;;;;;6.78;4.35;;;;;;;4.34;89.12;99727.69;5053435;28;20452;-26
2023/12/08 01:03:14;;;;;;;6.90;4.00;;;;;;;4.55;88.36;99729.00;5052944;28;20029;-26
2023/12/08 01:05:40;;;;;;;6.18;4.00;;;;;;;4.35;87.81;99724.03;5052895;28;20361;-25
2023/12/08 01:08:05;;;;;;;6.05;4.10;;;;;;;4.25;88.42;99726.03;5053184;28;20029;-26
2023/12/08 01:10:31;;;;;;;6.90;4.38;;;;;;;4.49;87.77;99727.84;5052945;28;20182;-26
2023/12/08 01:12:56;;;;;;;6.97;4.50;;;;;;;4.32;86.87;99721.72;5052706;28;20028;-31
2023/12/08 01:15:22;;;;;;;7.85;4.70;;;;;;;4.15;87.43;99707.75;5053187;28;20036;-26
2023/12/08 01:17:47;;;;;;;5.63;4.00;;;;;;;4.36;87.29;99733.63;5052834;28;20086;-26
2023/12/08 01:20:12;;;;;;;6.55;4.32;;;;;;;4.39;87.13;99729.81;5052773;28;20025;-26
2023/12/08 01:22:38;;;;;;;7.10;4.75;;;;;;;4.57;86.58;99727.00;5052501;28;20036;-26
2023/12/08 01:25:04;;;;;;;6.45;4.40;;;;;;;4.56;85.06;99735.91;5052750;28;20029;-26
2023/12/08 01:27:29;;;;;;;5.53;4.03;;;;;;;4.64;85.68;99730.63;5052865;28;20031;-26
2023/12/08 01:29:54;;;;;;;5.70;4.10;;;;;;;4.42;85.44;99722.41;5052753;28;20444;-26
2023/12/08 01:32:20;;;;;;;6.25;3.90;;;;;;;4.27;85.54;99711.69;5052620;28;20044;-27
2023/12/08 01:34:45;;;;;;;6.80;4.30;;;;;;;4.60;85.08;99724.88;5052676;28;20029;-25
2023/12/08 01:37:10;;;;;;;6.25;4.05;;;;;;;4.90;83.75;99725.19;5052386;28;20029;-26
2023/12/08 01:39:36;;;;;;;5.93;4.03;;;;;;;4.92;83.30;99727.66;5052460;28;20039;-26
2023/12/08 01:42:04;;;;;;;5.60;3.95;;;;;;;4.99;82.24;99723.34;5052743;28;20116;-27
2023/12/08 01:44:29;;;;;;;6.20;4.13;;;;;;;4.96;82.94;99713.16;5052534;28;20027;-26
2023/12/08 01:46:55;;;;;;;6.50;4.28;;;;;;;4.99;81.83;99718.06;5052380;28;20021;-26
2023/12/08 01:49:20;;;;;;;5.78;4.07;;;;;;;4.95;81.90;99722.88;5052393;28;20593;-26
2023/12/08 01:51:46;;;;;;;5.43;4.05;;;;;;;4.95;80.93;99722.03;5052570;28;20028;-26
2023/12/08 01:54:14;;;;;;;6.50;3.97;;;;;;;4.85;81.30;99719.59;5052098;28;20107;-26
2023/12/08 01:56:40;;;;;;;5.22;4.15;;;;;;;4.65;81.69;99714.66;5052168;28;20484;-26
2023/12/08 01:59:07;;;;;;;5.47;4.07;;;;;;;4.70;81.73;99724.69;5052306;28;20021;-26
2023/12/08 02:01:33;;;;;;;5.43;4.03;;;;;;;4.76;81.85;99724.06;5051994;28;20069;-26
2023/12/08 02:03:58;;;;;;;6.18;4.25;;;;;;;4.89;82.22;99719.09;5051995;28;20051;-26
2023/12/08 02:06:24;;;;;;;6.72;4.07;;;;;;;4.73;82.26;99726.19;5051730;28;20031;-26
2023/12/08 02:08:49;;;;;;;6.63;4.30;;;;;;;4.70;81.78;99722.91;5052539;28;20086;-27
2023/12/08 02:11:16;;;;;;;6.45;4.10;;;;;;;4.84;82.41;99731.13;5052227;28;20389;-26
2023/12/08 02:13:42;;;;;;;5.90;4.10;;;;;;;4.87;81.85;99720.25;5052119;28;20421;-26
2023/12/08 02:16:18;;;;;;;6.78;4.38;;;;;;;4.68;83.08;99719.63;5051992;28;20167;-26
2023/12/08 02:18:44;;;;;;;7.00;4.70;;;;;;;4.75;82.86;99725.03;5052065;28;20028;-26
2023/12/08 02:21:11;;;;;;;6.55;4.13;;;;;;;4.61;83.22;99729.16;5051856;28;20032;-25
2023/12/08 02:23:36;;;;;;;7.00;4.65;;;;;;;4.61;82.13;99723.91;5050323;28;20021;-26
2023/12/08 02:26:05;;;;;;;5.45;3.70;;;;;;;4.33;83.82;99717.31;5030683;28;20036;-25
2023/12/08 02:28:31;;;;;;;6.80;4.27;;;;;;;4.50;83.18;99735.59;5031919;28;20090;-26
2023/12/08 02:30:59;;;;;;;7.43;4.68;;;;;;;4.31;83.28;99725.38;5038288;28;20013;-26
2023/12/08 02:33:32;;;;;;;7.30;5.03;;;;;;;4.50;83.52;99726.84;5051507;28;20519;-26
2023/12/08 02:36:01;;;;;;;9.45;4.85;;;;;;;4.53;82.94;99729.16;5052167;28;20024;-26
2023/12/08 02:38:27;;;;;;;8.80;4.97;;;;;;;4.47;83.29;99729.81;5051978;28;20028;-26
2023/12/08 02:40:54;;;;;;;7.75;5.18;;;;;;;4.54;83.77;99725.53;5051537;28;20040;-26
2023/12/08 02:43:19;;;;;;;7.20;4.80;;;;;;;4.60;82.98;99730.16;5051215;28;20039;-26
2023/12/08 02:45:45;;;;;;;8.82;5.05;;;;;;;4.69;83.11;99726.53;5051366;28;20017;-26
2023/12/08 02:48:10;;;;;;;8.57;5.45;;;;;;;4.70;82.14;99736.09;5051657;28;20029;-25
2023/12/08 02:50:35;;;;;;;8.55;5.40;;;;;;;4.52;82.82;99738.06;5051709;28;20033;-26
2023/12/08 02:53:01;;;;;;;8.85;5.50;;;;;;;4.52;82.97;99737.25;5051250;28;20103;-26
2023/12/08 02:55:26;;;;;;;8.80;5.50;;;;;;;4.31;85.03;99736.72;5051454;28;20044;-25
2023/12/08 02:57:51;;;;;;;9.50;5.70;;;;;;;4.74;83.57;99727.81;5051522;28;20544;-26
2023/12/08 03:00:17;;;;;;;7.82;5.57;;;;;;;5.13;83.10;99745.59;5051214;28;20048;-26
2023/12/08 03:02:43;;;;;;;8.77;5.30;;;;;;;4.88;81.76;99735.91;5051294;28;20113;-26
2023/12/08 03:05:08;;;;;;;9.70;5.63;;;;;;;4.88;82.83;99732.44;5051213;28;20025;-26
2023/12/08 03:07:34;;;;;;;8.40;5.43;;;;;;;4.58;82.72;99740.03;5051024;28;20017;-25
2023/12/08 03:09:59;;;;;;;8.60;5.35;;;;;;;4.48;84.20;99737.56;5051090;28;20024;-26
2023/12/08 03:12:25;;;;;;;8.60;5.30;;;;;;;4.59;83.08;99727.66;5050807;28;20055;-26
2023/12/08 03:14:50;;;;;;;8.82;5.63;;;;;;;4.76;82.57;99741.66;5051285;28;20021;-26
2023/12/08 03:17:15;;;;;;;8.77;5.80;;;;;;;4.92;83.00;99738.22;5051441;28;20116;-26
2023/12/08 03:19:41;;;;;;;9.88;6.30;;;;;;;4.77;83.23;99735.41;5051031;28;20021;-26
2023/12/08 03:22:06;;;;;;;8.85;5.30;;;;;;;4.80;83.73;99737.75;5051355;28;20103;-26
2023/12/08 03:24:31;;;;;;;9.63;6.07;;;;;;;4.92;83.13;99739.03;5050964;28;20067;-26
2023/12/08 03:26:57;;;;;;;10.52;5.88;;;;;;;4.89;82.38;99739.34;5051091;28;20029;-26
2023/12/08 03:29:22;;;;;;;10.48;6.30;;;;;;;4.89;82.50;99739.34;5050931;28;20076;-26
2023/12/08 03:31:48;;;;;;;9.82;5.90;;;;;;;4.70;82.61;99741.38;5051065;28;20044;-25
2023/12/08 03:34:13;;;;;;;9.52;6.00;;;;;;;4.84;83.21;99744.31;5050639;28;20052;-26
2023/12/08 03:36:38;;;;;;;8.63;5.75;;;;;;;4.73;82.68;99744.66;5050716;28;20013;-26
2023/12/08 03:39:04;;;;;;;8.68;5.50;;;;;;;4.81;81.98;99737.53;5066219;28;20112;-26
2023/12/08 03:41:29;;;;;;;9.27;6.20;;;;;;;4.76;82.87;99737.25;5051021;28;20028;-26
2023/12/08 03:43:55;;;;;;;10.00;6.10;;;;;;;5.00;83.61;99740.84;5050841;28;20453;-27
2023/12/08 03:46:20;;;;;;;8.80;5.57;;;;;;;4.82;81.23;99731.28;5050969;28;20175;-26
2023/12/08 03:48:46;;;;;;;9.30;6.10;;;;;;;4.70;81.75;99727.34;5050838;28;20040;-26
2023/12/08 03:51:11;;;;;;;9.07;5.85;;;;;;;4.91;81.49;99726.81;5050849;28;20033;-26
2023/12/08 03:53:37;;;;;;;9.45;6.07;;;;;;;4.74;80.90;99730.47;5050699;28;20151;-26
2023/12/08 03:56:03;;;;;;;9.68;5.60;;;;;;;4.54;81.41;99725.53;5050474;28;20023;-26
2023/12/08 03:58:28;;;;;;;9.75;6.28;;;;;;;4.56;82.33;99725.38;5050911;28;20096;-26
2023/12/08 04:00:54;;;;;;;11.23;6.53;;;;;;;4.51;82.04;99731.13;5050517;28;20444;-26
2023/12/08 04:03:20;;;;;;;8.82;5.45;;;;;;;4.53;81.90;99723.06;5043007;28;20103;-26
2023/12/08 04:05:45;;;;;;;9.02;5.57;;;;;;;4.56;81.66;99725.38;5030609;28;20030;-28
2023/12/08 04:08:11;;;;;;;9.65;5.68;;;;;;;4.76;80.62;99721.41;5030811;28;20131;-26
2023/12/08 04:10:37;;;;;;;9.60;5.80;;;;;;;4.58;80.63;99710.22;5030639;28;20021;-25
2023/12/08 04:13:03;;;;;;;8.77;5.47;;;;;;;4.57;81.33;99725.22;5030489;28;20017;-26
2023/12/08 04:15:28;;;;;;;10.30;6.07;;;;;;;4.45;81.72;99732.59;5030436;28;20022;-26
2023/12/08 04:17:53;;;;;;;9.45;6.18;;;;;;;4.68;82.46;99729.31;5030319;28;20040;-25
2023/12/08 04:20:19;;;;;;;9.68;6.22;;;;;;;4.65;80.91;99737.56;5030639;28;20116;-25
2023/12/08 04:22:44;;;;;;;9.65;5.65;;;;;;;4.55;81.18;99735.09;5032463;28;20044;-26
2023/12/08 04:25:12;;;;;;;9.23;6.00;;;;;;;4.46;81.58;99728.19;5050357;28;20052;-25
2023/12/08 04:27:38;;;;;;;9.23;5.70;;;;;;;4.81;81.03;99737.53;5050410;28;20368;-26
2023/12/08 04:30:04;;;;;;;10.38;6.35;;;;;;;4.99;79.48;99733.91;5050422;28;20025;-26
2023/12/08 04:32:29;;;;;;;9.88;6.18;;;;;;;5.03;78.85;99732.59;5050293;28;20114;-26
2023/12/08 04:34:54;;;;;;;12.25;6.30;;;;;;;4.94;79.05;99737.03;5050055;28;20025;-26
2023/12/08 04:37:20;;;;;;;10.52;6.68;;;;;;;4.73;80.10;99742.03;5050458;28;20100;-26
2023/12/08 04:39:45;;;;;;;10.15;6.70;;;;;;;4.84;79.77;99739.88;5050609;28;20376;-26
2023/12/08 04:42:10;;;;;;;10.17;6.40;;;;;;;4.81;79.10;99724.38;5050128;28;20021;-26
2023/12/08 04:44:36;;;;;;;10.52;6.53;;;;;;;5.09;80.21;99735.38;5050428;28;20257;-27
2023/12/08 04:47:02;;;;;;;10.07;6.40;;;;;;;4.93;78.72;99743.31;5051915;28;20021;-26
2023/12/08 04:49:28;;;;;;;11.30;6.88;;;;;;;4.97;78.07;99746.44;5053678;28;20361;-27
2023/12/08 04:51:53;;;;;;;10.55;6.70;;;;;;;4.80;80.44;99735.91;5054261;28;20032;-27
2023/12/08 04:54:18;;;;;;;11.05;6.65;;;;;;;4.87;79.65;99739.53;5053662;28;20052;-40
2023/12/08 04:56:44;;;;;;;11.88;7.20;;;;;;;4.82;79.47;99728.66;5053533;28;20063;-40
2023/12/08 04:59:09;;;;;;;10.82;6.88;;;;;;;5.08;78.79;99736.38;5053297;28;20496;-40
2023/12/08 05:01:38;;;;;;;11.45;7.10;;;;;;;4.82;78.93;99733.13;5053000;28;20047;-40
2023/12/08 05:04:03;;;;;;;11.40;6.82;;;;;;;4.93;79.36;99735.41;5053586;28;20033;-39
2023/12/08 05:06:29;;;;;;;12.70;6.50;;;;;;;4.77;78.52;99724.88;5053780;28;20032;-40
2023/12/08 05:08:55;;;;;;;11.82;7.07;;;;;;;4.83;78.89;99738.19;5053694;28;20029;-39
2023/12/08 05:11:21;;;;;;;10.85;6.93;;;;;;;4.92;78.32;99740.84;5053710;28;20032;-38
2023/12/08 05:13:46;;;;;;;13.95;7.80;;;;;;;4.67;79.74;99735.59;5052987;28;20029;-40
2023/12/08 05:16:12;;;;;;;13.13;8.30;;;;;;;4.73;79.61;99739.38;5053825;28;20029;-40
2023/12/08 05:18:38;;;;;;;12.60;7.40;;;;;;;4.73;80.48;99742.03;5053645;28;20020;-41
2023/12/08 05:21:04;;;;;;;13.48;8.27;;;;;;;5.18;83.75;99743.25;5053618;28;20028;-41
2023/12/08 05:23:29;;;;;;;15.38;8.52;;;;;;;5.08;78.52;99744.28;5053064;28;20033;-40
2023/12/08 05:25:55;;;;;;;11.50;7.50;;;;;;;5.16;77.57;99742.59;5053259;28;20021;-40
2023/12/08 05:28:20;;;;;;;10.82;7.60;;;;;;;5.23;77.51;99743.59;5053499;28;20025;-41
2023/12/08 05:30:45;;;;;;;12.70;7.40;;;;;;;5.22;77.04;99748.03;5052815;28;20059;-40
2023/12/08 05:33:11;;;;;;;11.85;7.25;;;;;;;5.62;75.49;99741.00;5053110;28;20045;-40
2023/12/08 05:35:36;;;;;;;12.80;7.95;;;;;;;6.06;73.05;99743.13;5053119;28;20056;-39
2023/12/08 05:38:01;;;;;;;12.32;7.55;;;;;;;6.03;72.78;99740.00;5052998;28;20043;-40
2023/12/08 05:40:27;;;;;;;11.95;7.72;;;;;;;5.97;73.40;99752.06;5053101;28;20121;-39
2023/12/08 05:42:52;;;;;;;10.60;7.20;;;;;;;6.19;72.46;99747.03;5052870;28;20111;-41
2023/12/08 05:45:18;;;;;;;12.95;7.97;;;;;;;6.86;78.65;99759.56;5052665;28;20029;-40
2023/12/08 05:47:44;;;;;;;12.10;7.80;;;;;;;6.80;71.70;99763.75;5052868;28;20045;-40
2023/12/08 05:50:10;;;;;;;16.27;10.57;;;;;;;6.45;71.72;99757.22;5052870;28;20039;-41
2023/12/08 05:52:35;;;;;;;12.70;8.35;;;;;;;6.40;71.36;99760.41;5053047;28;20021;-40
2023/12/08 05:55:01;;;;;;;13.48;8.43;;;;;;;6.18;72.51;99754.09;5037792;28;20400;-40
2023/12/08 05:57:27;;;;;;;12.15;7.90;;;;;;;6.36;71.36;99753.84;5032026;28;20037;-41
2023/12/08 05:59:52;;;;;;;11.18;7.40;;;;;;;6.22;71.60;99750.09;5031971;28;20013;-40
2023/12/08 06:02:18;;;;;;;11.93;7.85;;;;;;;6.21;71.60;99753.75;5031472;28;20404;-40
2023/12/08 06:04:43;;;;;;;12.85;8.27;;;;;;;6.03;71.97;99756.66;5031948;28;20061;-42
2023/12/08 06:07:08;;;;;;;14.25;7.93;;;;;;;5.90;73.21;99759.00;5031338;28;20040;-40
2023/12/08 06:09:34;;;;;;;14.20;8.25;;;;;;;5.68;73.69;99766.69;5030412;28;20032;-40
2023/12/08 06:11:59;;;;;;;12.75;7.88;;;;;;;5.57;73.99;99775.00;5031431;28;20025;-40
2023/12/08 06:14:25;;;;;;;12.70;7.85;;;;;;;5.55;74.96;99773.53;5031545;28;20087;-40
2023/12/08 06:16:50;;;;;;;11.90;7.50;;;;;;;5.66;73.77;99778.44;5031312;28;20496;-41
2023/12/08 06:19:15;;;;;;;12.68;7.68;;;;;;;5.74;73.86;99782.88;5031647;28;20033;-39
2023/12/08 06:21:41;;;;;;;12.25;7.78;;;;;;;5.75;73.73;99787.13;5031996;28;20035;-40
2023/12/08 06:24:06;;;;;;;13.43;8.13;;;;;;;5.64;73.99;99791.81;5044890;28;20043;-41
2023/12/08 06:26:31;;;;;;;10.77;7.20;;;;;;;5.66;74.03;99796.91;5051004;28;20028;-40
2023/12/08 06:28:57;;;;;;;13.45;8.15;;;;;;;5.65;72.82;99793.47;5051593;28;20100;-40
2023/12/08 06:31:22;;;;;;;12.65;7.97;;;;;;;5.73;73.11;99802.34;5051800;28;20032;-41
2023/12/08 06:33:48;;;;;;;12.50;7.88;;;;;;;5.80;73.51;99816.50;5051447;28;20049;-39
2023/12/08 06:36:15;;;;;;;12.07;7.65;;;;;;;5.56;73.50;99809.47;5051597;28;20020;-38
2023/12/08 06:38:41;;;;;;;14.43;8.18;;;;;;;5.70;73.39;99806.16;5051668;28;20035;-39
2023/12/08 06:41:06;;;;;;;12.30;7.75;;;;;;;5.83;73.09;99814.34;5050568;28;20121;-38
2023/12/08 06:43:32;;;;;;;14.40;7.82;;;;;;;5.74;72.25;99807.44;5051606;28;20036;-39
2023/12/08 06:45:57;;;;;;;12.27;7.72;;;;;;;5.78;73.00;99811.38;5051653;28;20054;-43
2023/12/08 06:48:23;;;;;;;13.18;8.32;;;;;;;5.73;72.51;99807.63;5049897;28;20099;-42
2023/12/08 06:50:50;;;;;;;11.85;7.90;;;;;;;5.82;72.47;99807.41;5045937;28;20105;-40
2023/12/08 06:53:16;;;;;;;12.55;7.88;;;;;;;6.02;71.39;99801.78;5048676;28;20500;-40
2023/12/08 06:55:42;;;;;;;11.65;7.43;;;;;;;5.67;73.04;99815.25;5051461;28;20107;-41
2023/12/08 06:58:07;;;;;;;12.70;7.75;;;;;;;5.52;73.66;99814.28;5050739;28;20029;-40
2023/12/08 07:00:32;;;;;;;15.10;8.95;;;;;;;5.67;73.41;99814.41;5048855;28;20094;-39
2023/12/08 07:02:58;;;;;;;14.77;8.77;;;;;;;6.24;71.30;99808.94;5049470;28;20126;-41
2023/12/08 07:05:23;;;;;;;14.60;8.23;;;;;;;6.28;70.36;99808.56;5049189;28;20017;-40
2023/12/08 07:07:48;;;;;;;15.00;8.52;;;;;;;6.16;70.85;99814.22;5045309;28;20028;-39
2023/12/08 07:10:15;;;;;;;13.02;8.27;;;;;;;6.14;70.44;99818.06;5047587;28;20025;-27
2023/12/08 07:12:41;;;;;;;14.10;8.50;;;;;;;6.50;69.38;99815.69;5050547;28;20349;-27
2023/12/08 07:15:08;;;;;;;13.20;8.05;;;;;;;6.30;70.08;99817.94;5048338;28;20025;-28
2023/12/08 07:17:33;;;;;;;14.48;8.65;;;;;;;6.54;68.94;99817.00;5050138;28;20033;-26
2023/12/08 07:19:59;;;;;;;13.63;7.70;;;;;;;6.75;68.43;99818.19;5050142;28;20025;-27
2023/12/08 07:22:24;;;;;;;13.07;8.55;;;;;;;6.87;67.91;99829.97;5050005;28;20040;-28
2023/12/08 07:24:50;;;;;;;15.13;8.75;;;;;;;6.68;68.57;99828.63;5049774;28;20037;-27
2023/12/08 07:27:16;;;;;;;13.82;8.77;;;;;;;6.93;67.30;99837.22;5049011;28;20028;-27
2023/12/08 07:29:41;;;;;;;13.88;8.50;;;;;;;7.03;66.71;99835.16;5048427;28;20017;-27
2023/12/08 07:32:07;;;;;;;13.05;7.85;;;;;;;6.39;68.27;99829.31;5049451;28;20044;-26
2023/12/08 07:34:32;;;;;;;12.57;7.32;;;;;;;6.35;69.64;99825.38;5045819;28;20021;-26
2023/12/08 07:36:57;;;;;;;14.25;8.27;;;;;;;6.32;70.16;99828.34;5048070;28;20021;-27
2023/12/08 07:39:23;;;;;;;15.98;9.05;;;;;;;5.90;72.32;99822.41;5049212;28;20024;-27
2023/12/08 07:41:48;;;;;;;12.40;7.60;;;;;;;5.89;71.47;99831.34;5050761;28;20053;-28
2023/12/08 07:44:14;;;;;;;11.75;7.78;;;;;;;5.74;72.96;99822.47;5049907;28;20400;-28
2023/12/08 07:46:40;;;;;;;12.48;7.72;;;;;;;5.64;72.95;99835.88;5045426;28;20433;-27
2023/12/08 07:49:05;;;;;;;12.05;7.40;;;;;;;5.59;73.45;99831.09;5049856;28;20025;-27
2023/12/08 07:51:32;;;;;;;13.40;7.90;;;;;;;5.73;72.71;99836.66;5050171;28;20024;-28
2023/12/08 07:54:00;;;;;;;13.52;8.35;;;;;;;5.79;71.86;99842.09;5046628;28;20023;-27
2023/12/08 07:56:25;;;;;;;12.38;7.60;;;;;;;5.63;72.99;99847.41;5047639;28;20016;-31
2023/12/08 07:58:51;;;;;;;14.20;8.38;;;;;;;5.70;73.48;99842.28;5049789;28;20024;-28
2023/12/08 08:01:16;;;;;;;14.52;7.90;;;;;;;5.76;73.84;99847.72;5049258;28;20104;-27
2023/12/08 08:03:42;;;;;;;12.35;8.38;;;;;;;5.89;73.70;99841.91;5051143;28;20436;-28
2023/12/08 08:06:07;;;;;;;12.45;7.97;;;;;;;6.01;72.07;99847.66;5050128;28;20017;-27
2023/12/08 08:08:33;;;;;;;13.07;7.93;;;;;;;5.90;72.99;99850.63;5050347;28;20036;-26
2023/12/08 08:10:58;;;;;;;13.88;8.63;;;;;;;6.07;72.67;99850.47;5050230;28;20108;-27
2023/12/08 08:13:24;;;;;;;14.27;8.50;;;;;;;5.82;73.51;99859.41;5049364;28;20039;-30
2023/12/08 08:15:49;;;;;;;13.50;8.75;;;;;;;6.19;73.29;99861.47;5049874;28;20467;-27
2023/12/08 08:18:14;;;;;;;15.18;9.52;;;;;;;6.48;72.11;99854.72;5049884;28;20036;-26
2023/12/08 08:20:40;;;;;;;13.60;8.15;;;;;;;6.14;71.71;99837.38;5050040;28;20033;-27
2023/12/08 08:23:05;;;;;;;13.57;8.15;;;;;;;5.96;72.59;99861.41;5053531;28;20021;-30
2023/12/08 08:25:31;;;;;;;13.90;8.05;;;;;;;5.98;72.78;99861.22;5053834;28;20401;-29
2023/12/08 08:27:57;;;;;;;14.88;8.05;;;;;;;5.78;73.71;99863.41;5053783;28;20485;-28
2023/12/08 08:30:22;;;;;;;11.75;7.35;;;;;;;5.84;72.92;99860.06;5053761;28;20028;-27
2023/12/08 08:32:47;;;;;;;13.07;8.07;;;;;;;5.92;73.31;99861.84;5053299;28;20110;-27
2023/12/08 08:35:14;;;;;;;12.20;7.32;;;;;;;5.87;72.93;99871.13;5053794;28;20176;-28
2023/12/08 08:37:39;;;;;;;12.77;7.90;;;;;;;5.96;72.84;99863.19;5053980;28;20027;-27
2023/12/08 08:40:05;;;;;;;14.18;8.38;;;;;;;5.83;74.26;99861.88;5053447;28;20021;-27
2023/12/08 08:42:33;;;;;;;12.40;7.93;;;;;;;6.23;73.55;99859.31;5052293;28;20025;-28
2023/12/08 08:44:59;;;;;;;12.93;7.93;;;;;;;6.34;73.14;99868.66;5053895;28;20021;-27
2023/12/08 08:47:24;;;;;;;13.93;8.48;;;;;;;6.34;73.17;99863.38;5053389;28;20028;-27
2023/12/08 08:49:50;;;;;;;14.57;8.20;;;;;;;6.43;73.68;99871.06;5053542;28;20044;-28
2023/12/08 08:52:15;;;;;;;13.32;8.13;;;;;;;6.15;74.63;99857.53;5053314;28;20032;-27
2023/12/08 08:54:40;;;;;;;11.95;7.50;;;;;;;5.78;75.56;99858.94;5053500;28;20021;-30
2023/12/08 08:57:06;;;;;;;13.55;7.70;;;;;;;5.99;75.66;99862.88;5053403;28;20020;-28
2023/12/08 08:59:31;;;;;;;14.77;7.63;;;;;;;5.80;76.19;99843.72;5053209;28;20377;-28
2023/12/08 09:01:56;;;;;;;13.52;7.97;;;;;;;5.77;76.73;99859.09;5053163;28;20029;-27
2023/12/08 09:04:22;;;;;;;13.73;7.90;;;;;;;6.17;75.57;99865.25;5053063;28;20029;-29
2023/12/08 09:06:47;;;;;;;14.07;7.72;;;;;;;6.12;76.69;99862.31;5053046;28;20404;-29
2023/12/08 09:09:13;;;;;;;13.32;7.88;;;;;;;5.98;77.39;99862.03;5052775;28;20105;-27
2023/12/08 09:11:38;;;;;;;14.88;8.00;;;;;;;6.09;77.24;99862.66;5052879;28;20024;-28
2023/12/08 09:14:04;;;;;;;12.85;8.15;;;;;;;5.89;78.48;99860.38;5053393;28;20017;-27
2023/12/08 09:16:29;;;;;;;14.65;8.23;;;;;;;5.88;77.12;99854.28;5052830;28;20079;-27
2023/12/08 09:18:54;;;;;;;16.13;9.63;;;;;;;5.73;79.17;99844.59;5052757;28;20078;-27
2023/12/08 09:21:20;;;;;;;15.13;8.60;;;;;;;5.96;78.73;99844.69;5053264;28;20025;-28
2023/12/08 09:23:45;;;;;;;14.10;8.45;;;;;;;5.56;79.65;99846.44;5052629;28;20013;-27
2023/12/08 09:26:11;;;;;;;13.63;8.57;;;;;;;5.63;79.35;99842.94;5053049;28;20134;-30
2023/12/08 09:28:36;;;;;;;14.77;8.48;;;;;;;5.69;79.36;99841.44;5052906;28;20370;-27
2023/12/08 09:31:02;;;;;;;16.85;9.32;;;;;;;5.86;78.67;99832.50;5053018;28;20100;-27
2023/12/08 09:33:28;;;;;;;14.68;8.43;;;;;;;5.98;78.94;99837.47;5051780;28;20505;-27
2023/12/08 09:35:55;;;;;;;16.65;10.38;;;;;;;5.94;80.80;99841.38;5052509;28;20028;-26
2023/12/08 09:38:20;;;;;;;15.48;9.50;;;;;;;5.92;80.52;99836.28;5052375;28;20463;-26
2023/12/08 09:40:46;;;;;;;14.55;8.95;;;;;;;5.71;79.91;99831.53;5052278;28;20540;-28
2023/12/08 09:43:21;;;;;;;14.45;9.35;;;;;;;5.77;80.13;99825.59;5052285;28;20516;-28
2023/12/08 09:45:47;;;;;;;19.10;9.90;;;;;;;6.12;79.36;99823.50;5052469;28;20108;-27
2023/12/08 09:48:13;;;;;;;17.85;9.88;;;;;;;6.09;80.95;99823.03;5052409;28;20105;-29
2023/12/08 09:50:40;;;;;;;16.33;9.90;;;;;;;6.06;80.69;99813.63;5051982;28;20390;-27
2023/12/08 09:53:06;;;;;;;16.52;9.27;;;;;;;5.90;80.61;99813.66;5052090;28;20017;-27
2023/12/08 09:55:33;;;;;;;15.85;9.93;;;;;;;5.73;80.84;99799.69;5051979;28;20028;-27
2023/12/08 09:58:00;;;;;;;15.60;8.98;;;;;;;5.58;81.06;99810.97;5051635;28;20070;-27
2023/12/08 10:00:30;;;;;;;16.25;8.77;;;;;;;5.67;80.86;99809.97;5052055;28;20017;-26
2023/12/08 10:02:55;;;;;;;;;;;;;;;5.92;80.35;99804.59;5052564;28;20114;-27
2023/12/08 10:05:21;;;;;;;15.65;8.65;;;;;;;5.93;79.70;99808.06;5051926;28;20356;-27
2023/12/08 10:07:50;;;;;;;17.05;9.57;;;;;;;5.88;79.82;99804.09;5051520;28;20467;-27
2023/12/08 10:10:16;;;;;;;15.55;8.68;;;;;;;5.52;81.69;99782.63;5051704;28;20477;-27
2023/12/08 10:12:41;;;;;;;16.77;9.80;;;;;;;5.78;81.36;99802.66;5051851;28;20025;-28
2023/12/08 10:15:11;;;;;;;15.93;9.48;;;;;;;5.88;81.40;99806.75;5051721;28;20032;-27
2023/12/08 10:17:47;;;;;;;15.45;9.05;;;;;;;5.65;81.79;99797.91;5051732;28;20021;-28
2023/12/08 10:20:13;;;;;;;15.85;9.32;;;;;;;5.99;80.83;99799.47;5051430;28;20029;-27
2023/12/08 10:22:53;;;;;;;15.73;9.05;;;;;;;5.91;80.63;99796.84;5051492;28;20028;-27
2023/12/08 10:25:21;;;;;;;15.43;8.77;;;;;;;5.74;81.95;99796.06;5051313;28;20100;-29
2023/12/08 10:27:52;;;;;;;15.02;8.82;;;;;;;5.72;81.04;99788.31;5051461;28;20497;-28
2023/12/08 10:30:23;;;;;;;15.88;9.65;;;;;;;5.92;80.47;99782.63;5051096;28;20043;-27
2023/12/08 10:32:48;;;;;;;14.63;9.35;;;;;;;5.98;81.62;99792.53;5051386;28;20120;-27
2023/12/08 10:35:14;;;;;;;14.93;9.32;;;;;;;5.79;82.06;99784.00;5051850;28;20138;-27
2023/12/08 10:37:40;;;;;;;13.80;8.38;;;;;;;5.40;82.30;99776.03;5051278;28;20577;-27
2023/12/08 10:40:13;;;;;;;15.23;8.25;;;;;;;5.19;84.02;99773.94;5051911;28;20016;-27
2023/12/08 10:42:39;;;;;;;14.20;9.20;;;;;;;5.01;85.40;99768.88;5051284;28;20021;-27
2023/12/08 10:45:13;;;;;;;14.27;8.82;;;;;;;5.27;84.04;99768.63;5050697;28;20017;-28
2023/12/08 10:47:43;;;;;;;14.90;9.32;;;;;;;5.52;83.33;99771.22;5051477;28;20025;-27
2023/12/08 10:50:13;;;;;;;16.73;9.38;;;;;;;5.61;82.79;99764.91;5051444;28;20107;-28
2023/12/08 10:52:39;;;;;;;12.77;8.45;;;;;;;5.87;81.96;99756.72;5050765;28;20497;-28
2023/12/08 10:55:14;;;;;;;14.98;9.30;;;;;;;5.91;80.72;99751.94;5046404;28;20025;-28
2023/12/08 10:57:42;;;;;;;16.08;9.70;;;;;;;6.16;79.53;99760.56;5043740;28;20040;-27
2023/12/08 11:00:12;;;;;;;14.40;9.10;;;;;;;6.03;80.01;99755.84;5049635;28;20074;-27
2023/12/08 11:02:42;;;;;;;14.95;9.20;;;;;;;5.86;80.50;99761.19;5048944;28;20024;-27
2023/12/08 11:05:11;;;;;;;14.98;8.65;;;;;;;5.47;82.23;99763.81;5044422;28;20024;-28
2023/12/08 11:07:38;;;;;;;14.07;8.45;;;;;;;5.66;81.59;99763.41;5033947;28;20040;-27
2023/12/08 11:10:09;;;;;;;13.07;8.25;;;;;;;5.98;80.57;99756.38;5031745;28;20080;-28
2023/12/08 11:12:42;;;;;;;14.38;8.70;;;;;;;5.91;80.75;99754.56;5031731;28;20108;-28
2023/12/08 11:15:16;;;;;;;15.30;9.48;;;;;;;6.10;80.82;99764.72;5030821;28;20534;-27
2023/12/08 11:17:49;;;;;;;15.18;9.15;;;;;;;5.94;80.36;99757.69;5031079;28;20025;-28
2023/12/08 11:20:15;;;;;;;15.40;9.23;;;;;;;6.07;80.66;99751.84;5030902;28;20025;-28
2023/12/08 11:22:44;;;;;;;15.75;9.63;;;;;;;5.88;82.07;99759.22;5030297;28;20018;-28
2023/12/08 11:25:17;;;;;;;16.67;9.93;;;;;;;5.86;82.34;99765.63;5029896;28;20033;-27
2023/12/08 11:28:01;;;;;;;15.40;8.70;;;;;;;5.91;83.61;99758.03;5030204;28;20110;-27
2023/12/08 11:30:43;;;;;;;15.63;9.10;;;;;;;6.33;82.70;99763.94;5030685;28;20025;-28